KOYM

St Marys Municipal Airport

St Marys, Pennsylvania, USA
METAR KOYM 280055Z AUTO 19003KT 10SM SCT044 SCT060 BKN100 21/17 A3001 RMK AO2 LTG DSNT NE
Observed Flight Rules
May-28 @ 00:55 UTC (24 minutes ago) Visual Flight Rules
Wind Visibility Clouds
190° at 3 knots 10 miles
  • Scattered at 4,400' AGL
  • Scattered at 6,000' AGL
  • Broken at 10,000' AGL
Temperatures Readings
Current 21°C / 70°F
Dewpoint 17°C / 63°F
Humidity 78%
Altimeter 30.01" Hg
Pressure 1016 hPa
METAR KOYM 280055Z AUTO 19003KT 10SM SCT044 SCT060 BKN100 21/17 A3001 RMK AO2 LTG DSNT NE
Observed Flight Rules
May-28 @ 00:55 UTC
(24 minutes ago)
VFR
Wind Visibility
190° at 3 knots 10 miles
Clouds
  • Scattered at 4,400' AGL
  • Scattered at 6,000' AGL
  • Broken at 10,000' AGL
Temperature Dewpoint
21°C / 70°F 17°C / 63°F
Humidity Altimeter Pressure
78% 30.01" Hg 1016 hPa